Froid, Montana
Current Conditions -  °F | °C
As of 11:52 AM on Saturday 25 Oct 2014 (Local Time) from KISN Reporting Station
Clear Clear  
Wind Chill: 58°   Ceiling: Unl
Heat Index: 58°   Visibility: 10mi
Dew Point: 30°   Wind: 9mph
Humidity: 35%   Direction: 140°SE
Pressure: 30.09"   Gusts: NA
Location:  48.33°N, 104.5°W
Report Text: KISN 251752Z AUTO 14008KT 10SM CLR 14/M01 A3009 RMK AO2 SLP197 T01441011 10144 21006 58014
Loading
Personal Weather Stations






























Interactive Weather Map
Tropical Storm Tracking
New forecast layout! Learn more

10-Day Weather Forecast

Advertisements
Track Severe Weather on mobile